sensor_id;sensor_type;location;lat;lon;timestamp;P1;durP1;ratioP1;P2;durP2;ratioP2
43710;SDS011;29309;42.682;23.372;2022-11-04T00:01:41;14.38;;;7.10;;
43710;SDS011;29309;42.682;23.372;2022-11-04T00:04:08;17.13;;;8.20;;
43710;SDS011;29309;42.682;23.372;2022-11-04T00:06:35;15.85;;;7.60;;
43710;SDS011;29309;42.682;23.372;2022-11-04T00:09:01;16.40;;;7.07;;
43710;SDS011;29309;42.682;23.372;2022-11-04T00:11:27;12.02;;;6.68;;
43710;SDS011;29309;42.682;23.372;2022-11-04T00:14:12;10.80;;;6.55;;
43710;SDS011;29309;42.682;23.372;2022-11-04T00:16:38;12.88;;;6.97;;
43710;SDS011;29309;42.682;23.372;2022-11-04T00:19:22;15.10;;;7.45;;
43710;SDS011;29309;42.682;23.372;2022-11-04T00:21:48;13.77;;;7.60;;
43710;SDS011;29309;42.682;23.372;2022-11-04T00:24:32;15.50;;;7.20;;
43710;SDS011;29309;42.682;23.372;2022-11-04T00:27:07;17.70;;;7.65;;
43710;SDS011;29309;42.682;23.372;2022-11-04T00:29:52;14.32;;;7.32;;
43710;SDS011;29309;42.682;23.372;2022-11-04T00:32:17;15.32;;;8.00;;
43710;SDS011;29309;42.682;23.372;2022-11-04T00:35:01;11.43;;;7.18;;
43710;SDS011;29309;42.682;23.372;2022-11-04T00:37:26;15.80;;;8.35;;
43710;SDS011;29309;42.682;23.372;2022-11-04T00:39:52;15.32;;;8.77;;
43710;SDS011;29309;42.682;23.372;2022-11-04T00:42:17;28.23;;;9.15;;
43710;SDS011;29309;42.682;23.372;2022-11-04T00:44:43;17.50;;;7.82;;
43710;SDS011;29309;42.682;23.372;2022-11-04T00:47:08;27.50;;;8.80;;
43710;SDS011;29309;42.682;23.372;2022-11-04T00:49:33;16.88;;;8.73;;
43710;SDS011;29309;42.682;23.372;2022-11-04T00:51:59;19.45;;;9.60;;
43710;SDS011;29309;42.682;23.372;2022-11-04T00:54:24;14.52;;;8.25;;
43710;SDS011;29309;42.682;23.372;2022-11-04T00:56:50;19.17;;;7.90;;
43710;SDS011;29309;42.682;23.372;2022-11-04T00:59:16;12.40;;;7.70;;
43710;SDS011;29309;42.682;23.372;2022-11-04T01:01:41;15.23;;;8.45;;
43710;SDS011;29309;42.682;23.372;2022-11-04T01:04:07;16.02;;;8.27;;
43710;SDS011;29309;42.682;23.372;2022-11-04T01:06:33;16.27;;;7.47;;
43710;SDS011;29309;42.682;23.372;2022-11-04T01:08:59;15.90;;;8.73;;
43710;SDS011;29309;42.682;23.372;2022-11-04T01:11:27;25.05;;;8.60;;
43710;SDS011;29309;42.682;23.372;2022-11-04T01:13:54;17.65;;;8.32;;
43710;SDS011;29309;42.682;23.372;2022-11-04T01:16:20;19.60;;;8.55;;
43710;SDS011;29309;42.682;23.372;2022-11-04T01:18:46;15.05;;;8.48;;
43710;SDS011;29309;42.682;23.372;2022-11-04T01:21:12;15.63;;;8.65;;
43710;SDS011;29309;42.682;23.372;2022-11-04T01:23:39;14.90;;;8.15;;
43710;SDS011;29309;42.682;23.372;2022-11-04T01:26:17;21.95;;;9.70;;
43710;SDS011;29309;42.682;23.372;2022-11-04T01:28:44;14.77;;;8.98;;
43710;SDS011;29309;42.682;23.372;2022-11-04T01:31:11;15.35;;;8.20;;
43710;SDS011;29309;42.682;23.372;2022-11-04T01:33:38;15.23;;;8.60;;
43710;SDS011;29309;42.682;23.372;2022-11-04T01:36:05;17.10;;;9.00;;
43710;SDS011;29309;42.682;23.372;2022-11-04T01:38:32;15.38;;;8.57;;
43710;SDS011;29309;42.682;23.372;2022-11-04T01:40:58;19.00;;;8.35;;
43710;SDS011;29309;42.682;23.372;2022-11-04T01:43:42;16.83;;;8.27;;
43710;SDS011;29309;42.682;23.372;2022-11-04T01:46:20;18.83;;;9.88;;
43710;SDS011;29309;42.682;23.372;2022-11-04T01:48:46;16.58;;;9.15;;
43710;SDS011;29309;42.682;23.372;2022-11-04T01:51:13;15.80;;;8.68;;
43710;SDS011;29309;42.682;23.372;2022-11-04T01:53:39;22.02;;;9.82;;
43710;SDS011;29309;42.682;23.372;2022-11-04T01:56:08;13.48;;;8.85;;
43710;SDS011;29309;42.682;23.372;2022-11-04T01:58:38;19.63;;;9.10;;
43710;SDS011;29309;42.682;23.372;2022-11-04T02:01:07;20.23;;;9.43;;
43710;SDS011;29309;42.682;23.372;2022-11-04T02:03:37;24.42;;;9.75;;
43710;SDS011;29309;42.682;23.372;2022-11-04T02:06:05;15.90;;;8.82;;
43710;SDS011;29309;42.682;23.372;2022-11-04T02:08:31;22.75;;;10.55;;
43710;SDS011;29309;42.682;23.372;2022-11-04T02:10:59;21.75;;;10.80;;
43710;SDS011;29309;42.682;23.372;2022-11-04T02:13:26;20.38;;;9.57;;
43710;SDS011;29309;42.682;23.372;2022-11-04T02:34:58;19.75;;;11.25;;
43710;SDS011;29309;42.682;23.372;2022-11-04T02:45:32;21.52;;;10.75;;
43710;SDS011;29309;42.682;23.372;2022-11-04T02:48:48;20.48;;;11.35;;
43710;SDS011;29309;42.682;23.372;2022-11-04T02:51:05;19.75;;;11.02;;
43710;SDS011;29309;42.682;23.372;2022-11-04T02:53:45;19.30;;;10.15;;
43710;SDS011;29309;42.682;23.372;2022-11-04T02:56:15;20.48;;;10.38;;
43710;SDS011;29309;42.682;23.372;2022-11-04T02:58:47;20.45;;;12.02;;
43710;SDS011;29309;42.682;23.372;2022-11-04T03:01:18;21.17;;;11.23;;
43710;SDS011;29309;42.682;23.372;2022-11-04T03:03:51;22.70;;;11.30;;
43710;SDS011;29309;42.682;23.372;2022-11-04T03:06:24;19.52;;;11.05;;
43710;SDS011;29309;42.682;23.372;2022-11-04T03:08:52;22.98;;;11.43;;
43710;SDS011;29309;42.682;23.372;2022-11-04T03:11:23;26.33;;;12.93;;
43710;SDS011;29309;42.682;23.372;2022-11-04T03:16:44;21.17;;;12.63;;
43710;SDS011;29309;42.682;23.372;2022-11-04T03:19:15;22.77;;;12.27;;
43710;SDS011;29309;42.682;23.372;2022-11-04T03:21:52;23.17;;;12.52;;
43710;SDS011;29309;42.682;23.372;2022-11-04T03:24:23;23.20;;;12.25;;
43710;SDS011;29309;42.682;23.372;2022-11-04T03:27:11;21.48;;;12.00;;
43710;SDS011;29309;42.682;23.372;2022-11-04T03:29:45;20.17;;;12.57;;
43710;SDS011;29309;42.682;23.372;2022-11-04T03:34:45;30.73;;;12.23;;
43710;SDS011;29309;42.682;23.372;2022-11-04T03:37:11;20.88;;;12.02;;
43710;SDS011;29309;42.682;23.372;2022-11-04T03:39:37;24.10;;;13.00;;
43710;SDS011;29309;42.682;23.372;2022-11-04T03:42:04;29.33;;;13.63;;
43710;SDS011;29309;42.682;23.372;2022-11-04T03:45:05;24.85;;;12.50;;
43710;SDS011;29309;42.682;23.372;2022-11-04T03:47:30;22.40;;;12.45;;
43710;SDS011;29309;42.682;23.372;2022-11-04T03:49:58;19.40;;;11.20;;
43710;SDS011;29309;42.682;23.372;2022-11-04T03:52:29;22.17;;;12.80;;
43710;SDS011;29309;42.682;23.372;2022-11-04T03:54:55;21.70;;;12.23;;
43710;SDS011;29309;42.682;23.372;2022-11-04T03:57:27;21.83;;;12.32;;
43710;SDS011;29309;42.682;23.372;2022-11-04T04:05:22;22.23;;;13.75;;
43710;SDS011;29309;42.682;23.372;2022-11-04T04:15:52;22.33;;;13.95;;
43710;SDS011;29309;42.682;23.372;2022-11-04T04:18:50;27.23;;;14.73;;
43710;SDS011;29309;42.682;23.372;2022-11-04T04:21:18;25.65;;;15.48;;
43710;SDS011;29309;42.682;23.372;2022-11-04T04:23:46;35.10;;;15.13;;
43710;SDS011;29309;42.682;23.372;2022-11-04T04:26:34;29.42;;;15.65;;
43710;SDS011;29309;42.682;23.372;2022-11-04T04:29:20;25.13;;;14.32;;
43710;SDS011;29309;42.682;23.372;2022-11-04T04:31:48;25.88;;;15.32;;
43710;SDS011;29309;42.682;23.372;2022-11-04T04:34:21;31.42;;;15.88;;
43710;SDS011;29309;42.682;23.372;2022-11-04T04:36:57;24.52;;;14.55;;
43710;SDS011;29309;42.682;23.372;2022-11-04T04:39:54;27.58;;;13.57;;
43710;SDS011;29309;42.682;23.372;2022-11-04T04:42:41;26.58;;;13.55;;
43710;SDS011;29309;42.682;23.372;2022-11-04T04:45:32;23.90;;;14.10;;
43710;SDS011;29309;42.682;23.372;2022-11-04T04:48:02;24.73;;;13.00;;
43710;SDS011;29309;42.682;23.372;2022-11-04T04:50:34;27.13;;;14.75;;
43710;SDS011;29309;42.682;23.372;2022-11-04T04:53:02;27.52;;;14.70;;
43710;SDS011;29309;42.682;23.372;2022-11-04T04:55:28;25.27;;;14.65;;
43710;SDS011;29309;42.682;23.372;2022-11-04T04:57:55;31.58;;;15.07;;
43710;SDS011;29309;42.682;23.372;2022-11-04T05:00:21;26.58;;;13.63;;
43710;SDS011;29309;42.682;23.372;2022-11-04T05:02:47;25.30;;;13.77;;
43710;SDS011;29309;42.682;23.372;2022-11-04T05:05:13;21.40;;;13.35;;
43710;SDS011;29309;42.682;23.372;2022-11-04T05:07:39;26.25;;;13.82;;
43710;SDS011;29309;42.682;23.372;2022-11-04T05:10:05;25.63;;;13.95;;
43710;SDS011;29309;42.682;23.372;2022-11-04T05:12:36;25.65;;;12.68;;
43710;SDS011;29309;42.682;23.372;2022-11-04T05:15:21;28.17;;;13.00;;
43710;SDS011;29309;42.682;23.372;2022-11-04T05:17:52;27.30;;;13.82;;
43710;SDS011;29309;42.682;23.372;2022-11-04T05:20:21;24.20;;;13.25;;
43710;SDS011;29309;42.682;23.372;2022-11-04T05:22:47;32.00;;;13.90;;
43710;SDS011;29309;42.682;23.372;2022-11-04T05:25:13;26.55;;;13.98;;
43710;SDS011;29309;42.682;23.372;2022-11-04T05:27:38;23.23;;;13.93;;
43710;SDS011;29309;42.682;23.372;2022-11-04T05:30:04;25.92;;;13.60;;
43710;SDS011;29309;42.682;23.372;2022-11-04T05:32:30;31.13;;;15.15;;
43710;SDS011;29309;42.682;23.372;2022-11-04T05:34:56;22.27;;;13.93;;
43710;SDS011;29309;42.682;23.372;2022-11-04T05:37:21;35.65;;;15.55;;
43710;SDS011;29309;42.682;23.372;2022-11-04T05:39:47;24.38;;;13.48;;
43710;SDS011;29309;42.682;23.372;2022-11-04T05:42:12;35.33;;;15.25;;
43710;SDS011;29309;42.682;23.372;2022-11-04T05:44:38;32.40;;;14.55;;
43710;SDS011;29309;42.682;23.372;2022-11-04T05:47:03;29.23;;;14.60;;
43710;SDS011;29309;42.682;23.372;2022-11-04T05:49:28;31.67;;;14.32;;
43710;SDS011;29309;42.682;23.372;2022-11-04T05:51:54;28.55;;;14.75;;
43710;SDS011;29309;42.682;23.372;2022-11-04T05:54:19;28.60;;;14.38;;
43710;SDS011;29309;42.682;23.372;2022-11-04T05:56:45;30.27;;;15.13;;
43710;SDS011;29309;42.682;23.372;2022-11-04T05:59:10;31.98;;;15.10;;
43710;SDS011;29309;42.682;23.372;2022-11-04T06:01:37;26.52;;;14.75;;
43710;SDS011;29309;42.682;23.372;2022-11-04T06:04:04;29.50;;;14.27;;
43710;SDS011;29309;42.682;23.372;2022-11-04T06:06:34;25.13;;;14.95;;
43710;SDS011;29309;42.682;23.372;2022-11-04T06:09:00;33.83;;;14.70;;
43710;SDS011;29309;42.682;23.372;2022-11-04T06:11:27;32.45;;;16.63;;
43710;SDS011;29309;42.682;23.372;2022-11-04T06:13:54;36.17;;;15.98;;
43710;SDS011;29309;42.682;23.372;2022-11-04T06:16:20;28.60;;;14.82;;
43710;SDS011;29309;42.682;23.372;2022-11-04T06:18:46;24.63;;;14.35;;
43710;SDS011;29309;42.682;23.372;2022-11-04T06:23:37;33.13;;;15.02;;
43710;SDS011;29309;42.682;23.372;2022-11-04T06:26:06;26.67;;;13.60;;
43710;SDS011;29309;42.682;23.372;2022-11-04T06:28:32;32.50;;;15.48;;
43710;SDS011;29309;42.682;23.372;2022-11-04T06:30:59;32.75;;;15.75;;
43710;SDS011;29309;42.682;23.372;2022-11-04T06:33:26;25.52;;;15.77;;
43710;SDS011;29309;42.682;23.372;2022-11-04T06:35:55;33.47;;;15.13;;
43710;SDS011;29309;42.682;23.372;2022-11-04T06:38:21;34.97;;;17.38;;
43710;SDS011;29309;42.682;23.372;2022-11-04T06:40:47;28.58;;;17.13;;
43710;SDS011;29309;42.682;23.372;2022-11-04T06:43:12;36.53;;;18.95;;
43710;SDS011;29309;42.682;23.372;2022-11-04T06:45:38;43.85;;;17.90;;
43710;SDS011;29309;42.682;23.372;2022-11-04T06:48:03;35.42;;;18.25;;
43710;SDS011;29309;42.682;23.372;2022-11-04T06:50:29;39.33;;;18.35;;
43710;SDS011;29309;42.682;23.372;2022-11-04T06:52:54;29.98;;;17.73;;
43710;SDS011;29309;42.682;23.372;2022-11-04T06:55:20;29.85;;;17.90;;
43710;SDS011;29309;42.682;23.372;2022-11-04T06:57:45;27.27;;;15.60;;
43710;SDS011;29309;42.682;23.372;2022-11-04T07:00:11;30.95;;;17.48;;
43710;SDS011;29309;42.682;23.372;2022-11-04T07:02:37;30.15;;;16.45;;
43710;SDS011;29309;42.682;23.372;2022-11-04T07:05:03;29.25;;;16.33;;
43710;SDS011;29309;42.682;23.372;2022-11-04T07:07:29;33.75;;;17.08;;
43710;SDS011;29309;42.682;23.372;2022-11-04T07:09:54;28.35;;;15.70;;
43710;SDS011;29309;42.682;23.372;2022-11-04T07:12:21;37.25;;;17.40;;
43710;SDS011;29309;42.682;23.372;2022-11-04T07:14:47;32.45;;;15.60;;
43710;SDS011;29309;42.682;23.372;2022-11-04T07:17:13;27.35;;;15.43;;
43710;SDS011;29309;42.682;23.372;2022-11-04T07:19:38;25.88;;;14.75;;
43710;SDS011;29309;42.682;23.372;2022-11-04T07:22:04;28.10;;;16.05;;
43710;SDS011;29309;42.682;23.372;2022-11-04T07:24:30;30.85;;;14.77;;
43710;SDS011;29309;42.682;23.372;2022-11-04T07:26:55;27.58;;;14.48;;
43710;SDS011;29309;42.682;23.372;2022-11-04T07:29:21;26.20;;;14.25;;
43710;SDS011;29309;42.682;23.372;2022-11-04T07:31:46;28.00;;;15.60;;
43710;SDS011;29309;42.682;23.372;2022-11-04T07:34:12;26.88;;;15.32;;
43710;SDS011;29309;42.682;23.372;2022-11-04T07:36:37;31.17;;;15.02;;
43710;SDS011;29309;42.682;23.372;2022-11-04T07:39:03;26.48;;;14.57;;
43710;SDS011;29309;42.682;23.372;2022-11-04T07:41:30;25.67;;;15.60;;
43710;SDS011;29309;42.682;23.372;2022-11-04T07:43:56;29.70;;;16.70;;
43710;SDS011;29309;42.682;23.372;2022-11-04T07:46:23;31.15;;;16.88;;
43710;SDS011;29309;42.682;23.372;2022-11-04T07:48:48;31.02;;;15.63;;
43710;SDS011;29309;42.682;23.372;2022-11-04T07:51:15;27.63;;;16.52;;
43710;SDS011;29309;42.682;23.372;2022-11-04T07:53:42;33.75;;;15.40;;
43710;SDS011;29309;42.682;23.372;2022-11-04T07:56:09;29.90;;;16.05;;
43710;SDS011;29309;42.682;23.372;2022-11-04T07:58:36;25.08;;;15.93;;
43710;SDS011;29309;42.682;23.372;2022-11-04T08:01:10;29.80;;;15.60;;
43710;SDS011;29309;42.682;23.372;2022-11-04T08:03:38;26.58;;;14.02;;
43710;SDS011;29309;42.682;23.372;2022-11-04T08:06:05;25.15;;;14.77;;
43710;SDS011;29309;42.682;23.372;2022-11-04T08:08:32;26.95;;;14.73;;
43710;SDS011;29309;42.682;23.372;2022-11-04T08:10:59;30.85;;;16.13;;
43710;SDS011;29309;42.682;23.372;2022-11-04T08:13:26;26.25;;;15.07;;
43710;SDS011;29309;42.682;23.372;2022-11-04T08:15:53;26.25;;;15.15;;
43710;SDS011;29309;42.682;23.372;2022-11-04T08:18:19;33.65;;;16.70;;
43710;SDS011;29309;42.682;23.372;2022-11-04T08:20:48;27.52;;;15.40;;
43710;SDS011;29309;42.682;23.372;2022-11-04T08:23:15;32.83;;;15.68;;
43710;SDS011;29309;42.682;23.372;2022-11-04T08:25:41;31.15;;;16.00;;
43710;SDS011;29309;42.682;23.372;2022-11-04T08:28:06;26.67;;;15.77;;
43710;SDS011;29309;42.682;23.372;2022-11-04T08:30:32;27.58;;;15.52;;
43710;SDS011;29309;42.682;23.372;2022-11-04T08:32:57;27.77;;;15.68;;
43710;SDS011;29309;42.682;23.372;2022-11-04T08:35:23;28.77;;;15.63;;
43710;SDS011;29309;42.682;23.372;2022-11-04T08:37:50;30.30;;;14.70;;
43710;SDS011;29309;42.682;23.372;2022-11-04T08:40:15;30.98;;;15.63;;
43710;SDS011;29309;42.682;23.372;2022-11-04T08:42:41;36.88;;;17.27;;
43710;SDS011;29309;42.682;23.372;2022-11-04T08:45:06;28.08;;;16.38;;
43710;SDS011;29309;42.682;23.372;2022-11-04T08:47:32;30.08;;;15.68;;
43710;SDS011;29309;42.682;23.372;2022-11-04T08:49:57;31.45;;;17.52;;
43710;SDS011;29309;42.682;23.372;2022-11-04T08:52:23;35.70;;;16.67;;
43710;SDS011;29309;42.682;23.372;2022-11-04T08:54:52;30.90;;;16.90;;
43710;SDS011;29309;42.682;23.372;2022-11-04T08:57:18;29.10;;;16.33;;
43710;SDS011;29309;42.682;23.372;2022-11-04T08:59:43;30.77;;;15.70;;
43710;SDS011;29309;42.682;23.372;2022-11-04T09:02:11;29.40;;;15.25;;
43710;SDS011;29309;42.682;23.372;2022-11-04T09:04:38;36.58;;;15.48;;
43710;SDS011;29309;42.682;23.372;2022-11-04T09:07:04;31.25;;;16.40;;
43710;SDS011;29309;42.682;23.372;2022-11-04T09:09:30;36.13;;;16.08;;
43710;SDS011;29309;42.682;23.372;2022-11-04T09:11:56;25.95;;;14.90;;
43710;SDS011;29309;42.682;23.372;2022-11-04T09:14:21;28.05;;;15.52;;
43710;SDS011;29309;42.682;23.372;2022-11-04T09:16:47;30.15;;;16.58;;
43710;SDS011;29309;42.682;23.372;2022-11-04T09:19:16;28.80;;;15.90;;
43710;SDS011;29309;42.682;23.372;2022-11-04T09:21:41;30.70;;;15.88;;
43710;SDS011;29309;42.682;23.372;2022-11-04T09:24:07;35.78;;;16.40;;
43710;SDS011;29309;42.682;23.372;2022-11-04T09:26:33;32.97;;;17.17;;
43710;SDS011;29309;42.682;23.372;2022-11-04T09:28:58;31.73;;;14.98;;
43710;SDS011;29309;42.682;23.372;2022-11-04T09:31:25;26.83;;;15.15;;
43710;SDS011;29309;42.682;23.372;2022-11-04T09:33:52;28.60;;;15.93;;
43710;SDS011;29309;42.682;23.372;2022-11-04T09:36:19;41.33;;;16.15;;
43710;SDS011;29309;42.682;23.372;2022-11-04T09:38:44;33.05;;;17.55;;
43710;SDS011;29309;42.682;23.372;2022-11-04T09:41:34;33.85;;;14.70;;
43710;SDS011;29309;42.682;23.372;2022-11-04T09:46:51;24.67;;;15.32;;
43710;SDS011;29309;42.682;23.372;2022-11-04T09:49:21;34.00;;;15.90;;
43710;SDS011;29309;42.682;23.372;2022-11-04T09:51:49;29.83;;;15.63;;
43710;SDS011;29309;42.682;23.372;2022-11-04T09:56:49;25.75;;;14.73;;
43710;SDS011;29309;42.682;23.372;2022-11-04T09:59:23;32.00;;;14.95;;
43710;SDS011;29309;42.682;23.372;2022-11-04T10:01:57;29.38;;;13.77;;
43710;SDS011;29309;42.682;23.372;2022-11-04T10:07:22;30.40;;;14.52;;
43710;SDS011;29309;42.682;23.372;2022-11-04T10:10:14;23.83;;;12.57;;
43710;SDS011;29309;42.682;23.372;2022-11-04T10:24:23;19.95;;;11.60;;
43710;SDS011;29309;42.682;23.372;2022-11-04T10:27:04;19.15;;;10.60;;
43710;SDS011;29309;42.682;23.372;2022-11-04T10:29:43;32.92;;;10.15;;
43710;SDS011;29309;42.682;23.372;2022-11-04T10:32:20;27.38;;;11.32;;
43710;SDS011;29309;42.682;23.372;2022-11-04T10:34:53;22.38;;;10.85;;
43710;SDS011;29309;42.682;23.372;2022-11-04T10:37:20;22.33;;;10.60;;
43710;SDS011;29309;42.682;23.372;2022-11-04T10:39:46;19.50;;;10.77;;
43710;SDS011;29309;42.682;23.372;2022-11-04T10:42:13;19.85;;;11.40;;
43710;SDS011;29309;42.682;23.372;2022-11-04T10:44:43;22.80;;;11.30;;
43710;SDS011;29309;42.682;23.372;2022-11-04T10:52:23;18.13;;;11.02;;
43710;SDS011;29309;42.682;23.372;2022-11-04T10:54:49;21.67;;;12.48;;
43710;SDS011;29309;42.682;23.372;2022-11-04T10:57:20;21.60;;;10.95;;
43710;SDS011;29309;42.682;23.372;2022-11-04T10:59:58;27.27;;;12.50;;
43710;SDS011;29309;42.682;23.372;2022-11-04T11:02:45;23.13;;;12.30;;
43710;SDS011;29309;42.682;23.372;2022-11-04T11:07:43;22.50;;;11.02;;
43710;SDS011;29309;42.682;23.372;2022-11-04T11:10:17;22.40;;;12.07;;
43710;SDS011;29309;42.682;23.372;2022-11-04T11:15:32;19.55;;;11.07;;
43710;SDS011;29309;42.682;23.372;2022-11-04T11:18:16;22.38;;;12.38;;
43710;SDS011;29309;42.682;23.372;2022-11-04T11:21:02;20.02;;;9.60;;
43710;SDS011;29309;42.682;23.372;2022-11-04T11:25:59;21.85;;;10.02;;
43710;SDS011;29309;42.682;23.372;2022-11-04T11:28:25;16.33;;;10.38;;
43710;SDS011;29309;42.682;23.372;2022-11-04T11:30:55;19.17;;;9.73;;
43710;SDS011;29309;42.682;23.372;2022-11-04T11:36:03;19.00;;;9.77;;
43710;SDS011;29309;42.682;23.372;2022-11-04T11:38:37;19.55;;;10.18;;
43710;SDS011;29309;42.682;23.372;2022-11-04T11:41:15;19.75;;;10.20;;
43710;SDS011;29309;42.682;23.372;2022-11-04T11:43:49;23.25;;;11.45;;
43710;SDS011;29309;42.682;23.372;2022-11-04T11:46:27;20.02;;;10.30;;
43710;SDS011;29309;42.682;23.372;2022-11-04T11:48:58;17.10;;;9.57;;
43710;SDS011;29309;42.682;23.372;2022-11-04T11:51:36;23.98;;;9.43;;
43710;SDS011;29309;42.682;23.372;2022-11-04T11:56:53;19.20;;;10.30;;
43710;SDS011;29309;42.682;23.372;2022-11-04T12:04:53;21.98;;;9.15;;
43710;SDS011;29309;42.682;23.372;2022-11-04T12:10:52;15.35;;;8.77;;
43710;SDS011;29309;42.682;23.372;2022-11-04T12:21:12;20.73;;;8.98;;
43710;SDS011;29309;42.682;23.372;2022-11-04T12:26:32;21.70;;;9.57;;
43710;SDS011;29309;42.682;23.372;2022-11-04T12:40:05;15.70;;;8.35;;
43710;SDS011;29309;42.682;23.372;2022-11-04T12:48:00;22.50;;;10.18;;
43710;SDS011;29309;42.682;23.372;2022-11-04T12:53:44;18.27;;;10.02;;
43710;SDS011;29309;42.682;23.372;2022-11-04T12:56:19;20.83;;;9.20;;
43710;SDS011;29309;42.682;23.372;2022-11-04T13:01:45;19.40;;;10.15;;
43710;SDS011;29309;42.682;23.372;2022-11-04T13:04:24;20.33;;;9.50;;
43710;SDS011;29309;42.682;23.372;2022-11-04T13:07:00;22.58;;;9.45;;
43710;SDS011;29309;42.682;23.372;2022-11-04T13:12:06;20.40;;;9.45;;
43710;SDS011;29309;42.682;23.372;2022-11-04T13:17:31;17.63;;;9.68;;
43710;SDS011;29309;42.682;23.372;2022-11-04T13:20:02;17.67;;;9.75;;
43710;SDS011;29309;42.682;23.372;2022-11-04T13:22:41;19.63;;;10.45;;
43710;SDS011;29309;42.682;23.372;2022-11-04T13:25:16;21.40;;;9.75;;
43710;SDS011;29309;42.682;23.372;2022-11-04T13:27:43;18.10;;;9.20;;
43710;SDS011;29309;42.682;23.372;2022-11-04T13:35:46;19.92;;;9.85;;
43710;SDS011;29309;42.682;23.372;2022-11-04T13:38:34;19.55;;;9.45;;
43710;SDS011;29309;42.682;23.372;2022-11-04T13:44:01;22.80;;;11.05;;
43710;SDS011;29309;42.682;23.372;2022-11-04T13:46:50;21.90;;;10.00;;
43710;SDS011;29309;42.682;23.372;2022-11-04T13:49:20;23.10;;;10.55;;
43710;SDS011;29309;42.682;23.372;2022-11-04T13:52:08;21.23;;;10.52;;
43710;SDS011;29309;42.682;23.372;2022-11-04T13:54:45;26.02;;;11.30;;
43710;SDS011;29309;42.682;23.372;2022-11-04T13:57:19;18.20;;;9.95;;
43710;SDS011;29309;42.682;23.372;2022-11-04T14:18:48;20.65;;;10.57;;
43710;SDS011;29309;42.682;23.372;2022-11-04T14:21:18;30.40;;;16.55;;
43710;SDS011;29309;42.682;23.372;2022-11-04T14:23:50;21.48;;;11.77;;
43710;SDS011;29309;42.682;23.372;2022-11-04T14:26:25;16.48;;;9.43;;
43710;SDS011;29309;42.682;23.372;2022-11-04T14:29:06;19.85;;;9.55;;
43710;SDS011;29309;42.682;23.372;2022-11-04T14:31:41;18.90;;;9.60;;
43710;SDS011;29309;42.682;23.372;2022-11-04T14:34:24;19.15;;;10.55;;
43710;SDS011;29309;42.682;23.372;2022-11-04T14:36:56;17.17;;;8.52;;
43710;SDS011;29309;42.682;23.372;2022-11-04T14:39:26;20.58;;;10.07;;
43710;SDS011;29309;42.682;23.372;2022-11-04T14:42:02;25.15;;;10.80;;
43710;SDS011;29309;42.682;23.372;2022-11-04T14:50:14;20.65;;;11.13;;
43710;SDS011;29309;42.682;23.372;2022-11-04T15:03:22;28.63;;;11.25;;
43710;SDS011;29309;42.682;23.372;2022-11-04T15:05:51;21.65;;;12.02;;
43710;SDS011;29309;42.682;23.372;2022-11-04T15:11:15;24.50;;;10.95;;
43710;SDS011;29309;42.682;23.372;2022-11-04T15:14:09;20.90;;;9.75;;
43710;SDS011;29309;42.682;23.372;2022-11-04T15:16:48;19.45;;;10.50;;
43710;SDS011;29309;42.682;23.372;2022-11-04T15:19:19;24.25;;;10.30;;
43710;SDS011;29309;42.682;23.372;2022-11-04T15:21:58;19.77;;;10.65;;
43710;SDS011;29309;42.682;23.372;2022-11-04T15:24:26;22.30;;;10.65;;
43710;SDS011;29309;42.682;23.372;2022-11-04T15:26:53;24.33;;;10.82;;
43710;SDS011;29309;42.682;23.372;2022-11-04T15:29:23;29.45;;;11.85;;
43710;SDS011;29309;42.682;23.372;2022-11-04T15:31:56;25.67;;;10.48;;
43710;SDS011;29309;42.682;23.372;2022-11-04T15:34:27;22.77;;;11.25;;
43710;SDS011;29309;42.682;23.372;2022-11-04T15:36:58;29.50;;;11.40;;
43710;SDS011;29309;42.682;23.372;2022-11-04T15:39:41;28.02;;;12.50;;
43710;SDS011;29309;42.682;23.372;2022-11-04T15:42:13;28.00;;;11.90;;
43710;SDS011;29309;42.682;23.372;2022-11-04T15:53:28;26.30;;;12.15;;
43710;SDS011;29309;42.682;23.372;2022-11-04T15:55:54;18.08;;;11.15;;
43710;SDS011;29309;42.682;23.372;2022-11-04T15:58:19;16.30;;;10.77;;
43710;SDS011;29309;42.682;23.372;2022-11-04T16:00:52;22.15;;;10.57;;
43710;SDS011;29309;42.682;23.372;2022-11-04T16:03:20;27.67;;;10.73;;
43710;SDS011;29309;42.682;23.372;2022-11-04T16:06:01;20.80;;;10.77;;
43710;SDS011;29309;42.682;23.372;2022-11-04T16:08:30;22.08;;;11.38;;
43710;SDS011;29309;42.682;23.372;2022-11-04T16:13:41;22.85;;;11.65;;
43710;SDS011;29309;42.682;23.372;2022-11-04T16:18:53;31.50;;;11.60;;
43710;SDS011;29309;42.682;23.372;2022-11-04T16:26:28;19.48;;;11.57;;
43710;SDS011;29309;42.682;23.372;2022-11-04T16:28:56;20.35;;;11.82;;
43710;SDS011;29309;42.682;23.372;2022-11-04T16:31:30;27.35;;;12.88;;
43710;SDS011;29309;42.682;23.372;2022-11-04T16:33:58;22.00;;;11.48;;
43710;SDS011;29309;42.682;23.372;2022-11-04T16:36:24;21.35;;;12.43;;
43710;SDS011;29309;42.682;23.372;2022-11-04T16:41:17;21.38;;;11.43;;
43710;SDS011;29309;42.682;23.372;2022-11-04T16:43:43;22.42;;;12.07;;
43710;SDS011;29309;42.682;23.372;2022-11-04T16:46:09;15.50;;;10.05;;
43710;SDS011;29309;42.682;23.372;2022-11-04T16:48:35;20.35;;;10.80;;
43710;SDS011;29309;42.682;23.372;2022-11-04T16:51:01;18.83;;;9.90;;
43710;SDS011;29309;42.682;23.372;2022-11-04T16:53:26;19.73;;;10.88;;
43710;SDS011;29309;42.682;23.372;2022-11-04T16:55:52;21.80;;;10.15;;
43710;SDS011;29309;42.682;23.372;2022-11-04T16:58:19;18.55;;;11.35;;
43710;SDS011;29309;42.682;23.372;2022-11-04T17:00:48;22.65;;;10.88;;
43710;SDS011;29309;42.682;23.372;2022-11-04T17:03:17;26.17;;;12.63;;
43710;SDS011;29309;42.682;23.372;2022-11-04T17:05:50;16.15;;;10.07;;
43710;SDS011;29309;42.682;23.372;2022-11-04T17:08:21;22.17;;;10.20;;
43710;SDS011;29309;42.682;23.372;2022-11-04T17:10:47;18.63;;;10.38;;
43710;SDS011;29309;42.682;23.372;2022-11-04T17:13:13;23.52;;;11.05;;
43710;SDS011;29309;42.682;23.372;2022-11-04T17:15:39;24.73;;;11.52;;
43710;SDS011;29309;42.682;23.372;2022-11-04T17:18:05;18.90;;;10.65;;
43710;SDS011;29309;42.682;23.372;2022-11-04T17:20:30;23.25;;;13.52;;
43710;SDS011;29309;42.682;23.372;2022-11-04T17:22:57;20.27;;;11.77;;
43710;SDS011;29309;42.682;23.372;2022-11-04T17:25:24;21.73;;;11.00;;
43710;SDS011;29309;42.682;23.372;2022-11-04T17:27:51;24.15;;;11.27;;
43710;SDS011;29309;42.682;23.372;2022-11-04T17:30:17;28.67;;;11.20;;
43710;SDS011;29309;42.682;23.372;2022-11-04T17:32:44;27.98;;;12.98;;
43710;SDS011;29309;42.682;23.372;2022-11-04T17:35:11;18.80;;;11.05;;
43710;SDS011;29309;42.682;23.372;2022-11-04T17:37:38;22.75;;;11.27;;
43710;SDS011;29309;42.682;23.372;2022-11-04T17:40:03;22.83;;;11.68;;
43710;SDS011;29309;42.682;23.372;2022-11-04T17:42:30;22.92;;;11.70;;
43710;SDS011;29309;42.682;23.372;2022-11-04T17:45:14;23.48;;;12.05;;
43710;SDS011;29309;42.682;23.372;2022-11-04T17:47:39;23.10;;;11.20;;
43710;SDS011;29309;42.682;23.372;2022-11-04T17:50:05;26.30;;;11.73;;